sensor_id;sensor_type;location;lat;lon;timestamp;temperature;humidity
64939;DHT22;51453;47.738;7.420;2023-04-24T00:01:40;9.20;99.90
64939;DHT22;51453;47.738;7.420;2023-04-24T00:04:06;9.40;99.90
64939;DHT22;51453;47.738;7.420;2023-04-24T00:06:33;9.50;99.90
64939;DHT22;51453;47.738;7.420;2023-04-24T00:09:02;9.60;99.90
64939;DHT22;51453;47.738;7.420;2023-04-24T00:11:28;9.80;99.90
64939;DHT22;51453;47.738;7.420;2023-04-24T00:13:55;9.90;99.90
64939;DHT22;51453;47.738;7.420;2023-04-24T00:16:21;9.90;99.90
64939;DHT22;51453;47.738;7.420;2023-04-24T00:18:47;10.00;99.90
64939;DHT22;51453;47.738;7.420;2023-04-24T00:21:14;10.10;99.90
64939;DHT22;51453;47.738;7.420;2023-04-24T00:23:40;10.20;99.90
64939;DHT22;51453;47.738;7.420;2023-04-24T00:26:06;10.20;99.90
64939;DHT22;51453;47.738;7.420;2023-04-24T00:28:31;10.20;99.90
64939;DHT22;51453;47.738;7.420;2023-04-24T00:30:57;10.30;99.90
64939;DHT22;51453;47.738;7.420;2023-04-24T00:33:22;10.20;99.90
64939;DHT22;51453;47.738;7.420;2023-04-24T00:35:48;10.30;99.90
64939;DHT22;51453;47.738;7.420;2023-04-24T00:38:14;10.30;99.90
64939;DHT22;51453;47.738;7.420;2023-04-24T00:40:39;10.40;99.90
64939;DHT22;51453;47.738;7.420;2023-04-24T00:43:05;10.50;99.90
64939;DHT22;51453;47.738;7.420;2023-04-24T00:45:31;10.60;99.90
64939;DHT22;51453;47.738;7.420;2023-04-24T00:47:57;10.60;99.90
64939;DHT22;51453;47.738;7.420;2023-04-24T00:50:24;10.70;99.90
64939;DHT22;51453;47.738;7.420;2023-04-24T00:52:50;10.70;99.90
64939;DHT22;51453;47.738;7.420;2023-04-24T00:55:16;10.70;99.90
64939;DHT22;51453;47.738;7.420;2023-04-24T00:57:43;10.70;99.90
64939;DHT22;51453;47.738;7.420;2023-04-24T01:00:09;10.60;99.90
64939;DHT22;51453;47.738;7.420;2023-04-24T01:02:39;10.60;99.90
64939;DHT22;51453;47.738;7.420;2023-04-24T01:05:07;10.60;99.90
64939;DHT22;51453;47.738;7.420;2023-04-24T01:07:34;10.50;99.90
64939;DHT22;51453;47.738;7.420;2023-04-24T01:10:00;10.50;99.90
64939;DHT22;51453;47.738;7.420;2023-04-24T01:12:25;10.40;99.90
64939;DHT22;51453;47.738;7.420;2023-04-24T01:14:51;10.30;99.90
64939;DHT22;51453;47.738;7.420;2023-04-24T01:17:17;10.20;99.90
64939;DHT22;51453;47.738;7.420;2023-04-24T01:19:42;10.20;99.90
64939;DHT22;51453;47.738;7.420;2023-04-24T01:22:16;10.10;99.90
64939;DHT22;51453;47.738;7.420;2023-04-24T01:24:42;10.00;99.90
64939;DHT22;51453;47.738;7.420;2023-04-24T01:27:09;10.00;99.90
64939;DHT22;51453;47.738;7.420;2023-04-24T01:29:35;10.10;99.90
64939;DHT22;51453;47.738;7.420;2023-04-24T01:32:02;10.20;99.90
64939;DHT22;51453;47.738;7.420;2023-04-24T01:34:30;10.20;99.90
64939;DHT22;51453;47.738;7.420;2023-04-24T01:36:55;10.30;99.90
64939;DHT22;51453;47.738;7.420;2023-04-24T01:39:22;10.40;99.90
64939;DHT22;51453;47.738;7.420;2023-04-24T01:41:54;10.40;99.90
64939;DHT22;51453;47.738;7.420;2023-04-24T01:44:21;10.50;99.90
64939;DHT22;51453;47.738;7.420;2023-04-24T01:46:46;10.60;99.90
64939;DHT22;51453;47.738;7.420;2023-04-24T01:49:12;10.60;99.90
64939;DHT22;51453;47.738;7.420;2023-04-24T01:51:38;10.70;99.90
64939;DHT22;51453;47.738;7.420;2023-04-24T01:54:04;10.80;99.90
64939;DHT22;51453;47.738;7.420;2023-04-24T01:56:32;10.80;99.90
64939;DHT22;51453;47.738;7.420;2023-04-24T01:58:59;10.70;99.90
64939;DHT22;51453;47.738;7.420;2023-04-24T02:01:25;10.70;99.90
64939;DHT22;51453;47.738;7.420;2023-04-24T02:03:52;10.70;99.90
64939;DHT22;51453;47.738;7.420;2023-04-24T02:06:17;10.70;99.90
64939;DHT22;51453;47.738;7.420;2023-04-24T02:08:43;10.80;99.90
64939;DHT22;51453;47.738;7.420;2023-04-24T02:11:09;10.80;99.90
64939;DHT22;51453;47.738;7.420;2023-04-24T02:13:35;10.90;99.90
64939;DHT22;51453;47.738;7.420;2023-04-24T02:16:01;10.90;99.90
64939;DHT22;51453;47.738;7.420;2023-04-24T02:18:26;10.90;99.90
64939;DHT22;51453;47.738;7.420;2023-04-24T02:20:52;11.00;99.90
64939;DHT22;51453;47.738;7.420;2023-04-24T02:23:18;11.00;99.90
64939;DHT22;51453;47.738;7.420;2023-04-24T02:25:44;11.00;99.90
64939;DHT22;51453;47.738;7.420;2023-04-24T02:28:11;10.90;99.90
64939;DHT22;51453;47.738;7.420;2023-04-24T02:30:36;10.90;99.90
64939;DHT22;51453;47.738;7.420;2023-04-24T02:33:02;10.90;99.90
64939;DHT22;51453;47.738;7.420;2023-04-24T02:35:28;10.80;99.90
64939;DHT22;51453;47.738;7.420;2023-04-24T02:37:54;10.90;99.90
64939;DHT22;51453;47.738;7.420;2023-04-24T02:40:20;10.90;99.90
64939;DHT22;51453;47.738;7.420;2023-04-24T02:42:45;10.90;99.90
64939;DHT22;51453;47.738;7.420;2023-04-24T02:45:11;10.90;99.90
64939;DHT22;51453;47.738;7.420;2023-04-24T02:47:36;10.90;99.90
64939;DHT22;51453;47.738;7.420;2023-04-24T02:50:03;11.00;99.90
64939;DHT22;51453;47.738;7.420;2023-04-24T02:52:28;11.00;99.90
64939;DHT22;51453;47.738;7.420;2023-04-24T02:54:54;10.90;99.90
64939;DHT22;51453;47.738;7.420;2023-04-24T02:57:20;10.90;99.90
64939;DHT22;51453;47.738;7.420;2023-04-24T02:59:46;10.90;99.90
64939;DHT22;51453;47.738;7.420;2023-04-24T03:02:11;10.80;99.90
64939;DHT22;51453;47.738;7.420;2023-04-24T03:04:37;10.80;99.90
64939;DHT22;51453;47.738;7.420;2023-04-24T03:07:03;10.80;99.90
64939;DHT22;51453;47.738;7.420;2023-04-24T03:09:29;10.80;99.90
64939;DHT22;51453;47.738;7.420;2023-04-24T03:11:55;10.80;99.90
64939;DHT22;51453;47.738;7.420;2023-04-24T03:14:21;10.70;99.90
64939;DHT22;51453;47.738;7.420;2023-04-24T03:16:47;10.80;99.90
64939;DHT22;51453;47.738;7.420;2023-04-24T03:19:13;10.80;99.90
64939;DHT22;51453;47.738;7.420;2023-04-24T03:21:39;10.80;99.90
64939;DHT22;51453;47.738;7.420;2023-04-24T03:24:07;10.80;99.90
64939;DHT22;51453;47.738;7.420;2023-04-24T03:26:33;10.80;99.90
64939;DHT22;51453;47.738;7.420;2023-04-24T03:28:59;10.80;99.90
64939;DHT22;51453;47.738;7.420;2023-04-24T03:31:24;10.80;99.90
64939;DHT22;51453;47.738;7.420;2023-04-24T03:33:50;10.80;99.90
64939;DHT22;51453;47.738;7.420;2023-04-24T03:36:16;10.70;99.90
64939;DHT22;51453;47.738;7.420;2023-04-24T03:38:43;10.70;99.90
64939;DHT22;51453;47.738;7.420;2023-04-24T03:41:08;10.60;99.90
64939;DHT22;51453;47.738;7.420;2023-04-24T03:43:34;10.60;99.90
64939;DHT22;51453;47.738;7.420;2023-04-24T03:46:00;10.50;99.90
64939;DHT22;51453;47.738;7.420;2023-04-24T03:48:26;10.50;99.90
64939;DHT22;51453;47.738;7.420;2023-04-24T03:50:51;10.50;99.90
64939;DHT22;51453;47.738;7.420;2023-04-24T03:53:17;10.40;99.90
64939;DHT22;51453;47.738;7.420;2023-04-24T03:55:43;10.40;99.90
64939;DHT22;51453;47.738;7.420;2023-04-24T03:58:08;10.30;99.90
64939;DHT22;51453;47.738;7.420;2023-04-24T04:00:34;10.30;99.90
64939;DHT22;51453;47.738;7.420;2023-04-24T04:03:00;10.30;99.90
64939;DHT22;51453;47.738;7.420;2023-04-24T04:05:25;10.30;99.90
64939;DHT22;51453;47.738;7.420;2023-04-24T04:07:51;10.30;99.90
64939;DHT22;51453;47.738;7.420;2023-04-24T04:10:17;10.30;99.90
64939;DHT22;51453;47.738;7.420;2023-04-24T04:12:42;10.30;99.90
64939;DHT22;51453;47.738;7.420;2023-04-24T04:15:09;10.20;99.90
64939;DHT22;51453;47.738;7.420;2023-04-24T04:17:34;10.20;99.90
64939;DHT22;51453;47.738;7.420;2023-04-24T04:20:00;10.20;99.90
64939;DHT22;51453;47.738;7.420;2023-04-24T04:22:26;10.20;99.90
64939;DHT22;51453;47.738;7.420;2023-04-24T04:24:52;10.20;99.90
64939;DHT22;51453;47.738;7.420;2023-04-24T04:27:17;10.10;99.90
64939;DHT22;51453;47.738;7.420;2023-04-24T04:29:44;10.10;99.90
64939;DHT22;51453;47.738;7.420;2023-04-24T04:32:10;10.00;99.90
64939;DHT22;51453;47.738;7.420;2023-04-24T04:34:35;10.00;99.90
64939;DHT22;51453;47.738;7.420;2023-04-24T04:37:03;9.90;99.90
64939;DHT22;51453;47.738;7.420;2023-04-24T04:39:29;9.90;99.90
64939;DHT22;51453;47.738;7.420;2023-04-24T04:41:55;9.90;99.90
64939;DHT22;51453;47.738;7.420;2023-04-24T04:44:21;9.80;99.90
64939;DHT22;51453;47.738;7.420;2023-04-24T04:46:47;9.70;99.90
64939;DHT22;51453;47.738;7.420;2023-04-24T04:49:13;9.70;99.90
64939;DHT22;51453;47.738;7.420;2023-04-24T04:51:42;9.70;99.90
64939;DHT22;51453;47.738;7.420;2023-04-24T04:54:07;9.70;99.90
64939;DHT22;51453;47.738;7.420;2023-04-24T04:56:33;9.70;99.90
64939;DHT22;51453;47.738;7.420;2023-04-24T04:58:59;9.70;99.90
64939;DHT22;51453;47.738;7.420;2023-04-24T05:01:25;9.70;99.90
64939;DHT22;51453;47.738;7.420;2023-04-24T05:03:52;9.80;99.90
64939;DHT22;51453;47.738;7.420;2023-04-24T05:06:18;9.90;99.90
64939;DHT22;51453;47.738;7.420;2023-04-24T05:08:44;10.00;99.90
64939;DHT22;51453;47.738;7.420;2023-04-24T05:11:10;10.00;99.90
64939;DHT22;51453;47.738;7.420;2023-04-24T05:13:35;10.10;99.90
64939;DHT22;51453;47.738;7.420;2023-04-24T05:16:01;10.00;99.90
64939;DHT22;51453;47.738;7.420;2023-04-24T05:18:26;10.00;99.90
64939;DHT22;51453;47.738;7.420;2023-04-24T05:20:52;9.90;99.90
64939;DHT22;51453;47.738;7.420;2023-04-24T05:23:18;9.90;99.90
64939;DHT22;51453;47.738;7.420;2023-04-24T05:25:43;9.90;99.90
64939;DHT22;51453;47.738;7.420;2023-04-24T05:28:09;9.90;99.90
64939;DHT22;51453;47.738;7.420;2023-04-24T05:30:35;9.90;99.90
64939;DHT22;51453;47.738;7.420;2023-04-24T05:33:00;9.90;99.90
64939;DHT22;51453;47.738;7.420;2023-04-24T05:35:26;9.90;99.90
64939;DHT22;51453;47.738;7.420;2023-04-24T05:37:52;9.90;99.90
64939;DHT22;51453;47.738;7.420;2023-04-24T05:40:17;10.00;99.90
64939;DHT22;51453;47.738;7.420;2023-04-24T05:42:43;10.20;99.90
64939;DHT22;51453;47.738;7.420;2023-04-24T05:45:09;10.30;99.90
64939;DHT22;51453;47.738;7.420;2023-04-24T05:47:39;10.40;99.90
64939;DHT22;51453;47.738;7.420;2023-04-24T05:50:05;10.40;99.90
64939;DHT22;51453;47.738;7.420;2023-04-24T05:52:31;10.30;99.90
64939;DHT22;51453;47.738;7.420;2023-04-24T05:54:57;10.00;99.90
64939;DHT22;51453;47.738;7.420;2023-04-24T05:57:22;10.00;99.90
64939;DHT22;51453;47.738;7.420;2023-04-24T05:59:48;9.90;99.90
64939;DHT22;51453;47.738;7.420;2023-04-24T06:02:14;10.00;99.90
64939;DHT22;51453;47.738;7.420;2023-04-24T06:04:39;9.90;99.90
64939;DHT22;51453;47.738;7.420;2023-04-24T06:07:05;10.00;99.90
64939;DHT22;51453;47.738;7.420;2023-04-24T06:09:31;9.90;99.90
64939;DHT22;51453;47.738;7.420;2023-04-24T06:11:57;9.80;99.90
64939;DHT22;51453;47.738;7.420;2023-04-24T06:14:23;9.80;99.90
64939;DHT22;51453;47.738;7.420;2023-04-24T06:16:48;9.70;99.90
64939;DHT22;51453;47.738;7.420;2023-04-24T06:19:14;9.70;99.90
64939;DHT22;51453;47.738;7.420;2023-04-24T06:21:40;9.60;99.90
64939;DHT22;51453;47.738;7.420;2023-04-24T06:24:05;9.50;99.90
64939;DHT22;51453;47.738;7.420;2023-04-24T06:26:31;9.40;99.90
64939;DHT22;51453;47.738;7.420;2023-04-24T06:28:56;9.30;99.90
64939;DHT22;51453;47.738;7.420;2023-04-24T06:31:24;9.10;99.90
64939;DHT22;51453;47.738;7.420;2023-04-24T06:33:50;9.20;99.90
64939;DHT22;51453;47.738;7.420;2023-04-24T06:36:15;9.40;99.90
64939;DHT22;51453;47.738;7.420;2023-04-24T06:38:41;9.50;99.90
64939;DHT22;51453;47.738;7.420;2023-04-24T06:41:07;9.70;99.90
64939;DHT22;51453;47.738;7.420;2023-04-24T06:43:33;9.80;99.90
64939;DHT22;51453;47.738;7.420;2023-04-24T06:45:59;9.90;99.90
64939;DHT22;51453;47.738;7.420;2023-04-24T06:48:25;10.00;99.90
64939;DHT22;51453;47.738;7.420;2023-04-24T06:50:51;10.10;99.90
64939;DHT22;51453;47.738;7.420;2023-04-24T06:53:17;10.20;99.90
64939;DHT22;51453;47.738;7.420;2023-04-24T06:55:43;10.30;99.90
64939;DHT22;51453;47.738;7.420;2023-04-24T06:58:11;10.30;99.90
64939;DHT22;51453;47.738;7.420;2023-04-24T07:00:37;10.40;99.90
64939;DHT22;51453;47.738;7.420;2023-04-24T07:03:03;10.50;99.90
64939;DHT22;51453;47.738;7.420;2023-04-24T07:05:30;10.60;99.90
64939;DHT22;51453;47.738;7.420;2023-04-24T07:07:56;10.60;99.90
64939;DHT22;51453;47.738;7.420;2023-04-24T07:10:24;10.70;99.90
64939;DHT22;51453;47.738;7.420;2023-04-24T07:12:50;10.80;99.90
64939;DHT22;51453;47.738;7.420;2023-04-24T07:15:15;10.80;99.90
64939;DHT22;51453;47.738;7.420;2023-04-24T07:17:41;10.80;99.90
64939;DHT22;51453;47.738;7.420;2023-04-24T07:20:10;10.90;99.90
64939;DHT22;51453;47.738;7.420;2023-04-24T07:22:37;11.00;99.90
64939;DHT22;51453;47.738;7.420;2023-04-24T07:25:04;11.10;99.90
64939;DHT22;51453;47.738;7.420;2023-04-24T07:27:30;11.20;99.90
64939;DHT22;51453;47.738;7.420;2023-04-24T07:29:56;11.40;99.90
64939;DHT22;51453;47.738;7.420;2023-04-24T07:32:21;11.50;99.90
64939;DHT22;51453;47.738;7.420;2023-04-24T07:34:47;11.60;99.90
64939;DHT22;51453;47.738;7.420;2023-04-24T07:37:13;11.60;99.90
64939;DHT22;51453;47.738;7.420;2023-04-24T07:39:38;11.60;99.90
64939;DHT22;51453;47.738;7.420;2023-04-24T07:42:04;11.40;99.90
64939;DHT22;51453;47.738;7.420;2023-04-24T07:44:30;11.60;99.90
64939;DHT22;51453;47.738;7.420;2023-04-24T07:46:56;11.70;99.90
64939;DHT22;51453;47.738;7.420;2023-04-24T07:49:21;11.80;99.90
64939;DHT22;51453;47.738;7.420;2023-04-24T07:51:47;11.90;99.90
64939;DHT22;51453;47.738;7.420;2023-04-24T07:54:13;11.90;99.90
64939;DHT22;51453;47.738;7.420;2023-04-24T07:56:38;11.80;99.90
64939;DHT22;51453;47.738;7.420;2023-04-24T07:59:05;11.80;99.90
64939;DHT22;51453;47.738;7.420;2023-04-24T08:01:30;11.80;99.90
64939;DHT22;51453;47.738;7.420;2023-04-24T08:03:56;11.90;99.90
64939;DHT22;51453;47.738;7.420;2023-04-24T08:06:22;12.00;99.90
64939;DHT22;51453;47.738;7.420;2023-04-24T08:08:48;12.10;99.90
64939;DHT22;51453;47.738;7.420;2023-04-24T08:11:13;12.30;99.90
64939;DHT22;51453;47.738;7.420;2023-04-24T08:13:39;12.50;99.90
64939;DHT22;51453;47.738;7.420;2023-04-24T08:16:05;12.70;99.90
64939;DHT22;51453;47.738;7.420;2023-04-24T08:18:31;12.90;99.90
64939;DHT22;51453;47.738;7.420;2023-04-24T08:20:57;12.90;99.90
64939;DHT22;51453;47.738;7.420;2023-04-24T08:23:26;13.00;99.90
64939;DHT22;51453;47.738;7.420;2023-04-24T08:25:52;12.70;99.90
64939;DHT22;51453;47.738;7.420;2023-04-24T08:28:18;12.60;99.90
64939;DHT22;51453;47.738;7.420;2023-04-24T08:30:46;12.40;99.90
64939;DHT22;51453;47.738;7.420;2023-04-24T08:33:12;12.10;99.90
64939;DHT22;51453;47.738;7.420;2023-04-24T08:35:38;12.10;99.90
64939;DHT22;51453;47.738;7.420;2023-04-24T08:38:04;12.30;99.90
64939;DHT22;51453;47.738;7.420;2023-04-24T08:40:34;12.40;99.90
64939;DHT22;51453;47.738;7.420;2023-04-24T08:43:00;12.60;99.90
64939;DHT22;51453;47.738;7.420;2023-04-24T08:45:26;12.60;99.90
64939;DHT22;51453;47.738;7.420;2023-04-24T08:47:55;12.70;99.90
64939;DHT22;51453;47.738;7.420;2023-04-24T08:50:21;12.70;99.90
64939;DHT22;51453;47.738;7.420;2023-04-24T08:52:50;12.80;99.90
64939;DHT22;51453;47.738;7.420;2023-04-24T08:55:16;12.90;99.90
64939;DHT22;51453;47.738;7.420;2023-04-24T08:57:45;12.80;99.90
64939;DHT22;51453;47.738;7.420;2023-04-24T09:00:11;12.90;99.90
64939;DHT22;51453;47.738;7.420;2023-04-24T09:02:42;13.10;99.90
64939;DHT22;51453;47.738;7.420;2023-04-24T09:05:09;13.20;99.90
64939;DHT22;51453;47.738;7.420;2023-04-24T09:07:36;13.20;99.90
64939;DHT22;51453;47.738;7.420;2023-04-24T09:10:05;13.30;99.90
64939;DHT22;51453;47.738;7.420;2023-04-24T09:12:32;13.30;99.90
64939;DHT22;51453;47.738;7.420;2023-04-24T09:14:58;13.50;99.90
64939;DHT22;51453;47.738;7.420;2023-04-24T09:17:26;13.90;99.90
64939;DHT22;51453;47.738;7.420;2023-04-24T09:19:53;14.10;99.90
64939;DHT22;51453;47.738;7.420;2023-04-24T09:22:20;14.50;99.90
64939;DHT22;51453;47.738;7.420;2023-04-24T09:24:46;14.80;99.90
64939;DHT22;51453;47.738;7.420;2023-04-24T09:27:13;14.90;99.90
64939;DHT22;51453;47.738;7.420;2023-04-24T09:29:56;14.90;99.90
64939;DHT22;51453;47.738;7.420;2023-04-24T09:32:22;15.00;99.90
64939;DHT22;51453;47.738;7.420;2023-04-24T09:35:14;14.90;99.90
64939;DHT22;51453;47.738;7.420;2023-04-24T09:37:46;14.90;99.90
64939;DHT22;51453;47.738;7.420;2023-04-24T09:40:13;14.80;99.90
64939;DHT22;51453;47.738;7.420;2023-04-24T09:42:40;14.70;99.90
64939;DHT22;51453;47.738;7.420;2023-04-24T09:45:09;14.40;99.90
64939;DHT22;51453;47.738;7.420;2023-04-24T09:47:41;14.60;99.90
64939;DHT22;51453;47.738;7.420;2023-04-24T09:50:15;15.00;99.90
64939;DHT22;51453;47.738;7.420;2023-04-24T09:52:45;15.50;99.90
64939;DHT22;51453;47.738;7.420;2023-04-24T09:55:21;16.00;99.90
64939;DHT22;51453;47.738;7.420;2023-04-24T09:57:59;16.60;99.90
64939;DHT22;51453;47.738;7.420;2023-04-24T10:00:32;16.60;99.90
64939;DHT22;51453;47.738;7.420;2023-04-24T10:03:00;16.40;99.90
64939;DHT22;51453;47.738;7.420;2023-04-24T10:05:30;16.10;99.90
64939;DHT22;51453;47.738;7.420;2023-04-24T10:08:08;16.00;99.90
64939;DHT22;51453;47.738;7.420;2023-04-24T10:10:35;15.40;99.90
64939;DHT22;51453;47.738;7.420;2023-04-24T10:13:04;15.30;99.90
64939;DHT22;51453;47.738;7.420;2023-04-24T10:15:30;15.40;99.90
64939;DHT22;51453;47.738;7.420;2023-04-24T10:17:58;15.90;99.90
64939;DHT22;51453;47.738;7.420;2023-04-24T10:20:27;16.10;99.90
64939;DHT22;51453;47.738;7.420;2023-04-24T10:22:54;16.00;99.90
64939;DHT22;51453;47.738;7.420;2023-04-24T10:25:22;15.80;99.90
64939;DHT22;51453;47.738;7.420;2023-04-24T10:27:49;15.60;99.90
64939;DHT22;51453;47.738;7.420;2023-04-24T10:30:16;15.30;99.90
64939;DHT22;51453;47.738;7.420;2023-04-24T10:32:42;15.00;99.90
64939;DHT22;51453;47.738;7.420;2023-04-24T10:35:09;14.70;99.90
64939;DHT22;51453;47.738;7.420;2023-04-24T10:37:38;14.80;99.90
64939;DHT22;51453;47.738;7.420;2023-04-24T10:40:06;14.80;99.90
64939;DHT22;51453;47.738;7.420;2023-04-24T10:42:33;14.90;99.90
64939;DHT22;51453;47.738;7.420;2023-04-24T10:44:58;14.80;99.90
64939;DHT22;51453;47.738;7.420;2023-04-24T10:47:27;14.60;99.90
64939;DHT22;51453;47.738;7.420;2023-04-24T10:49:53;14.40;99.90
64939;DHT22;51453;47.738;7.420;2023-04-24T10:52:19;14.40;99.90
64939;DHT22;51453;47.738;7.420;2023-04-24T10:54:46;14.30;99.90
64939;DHT22;51453;47.738;7.420;2023-04-24T11:00:14;14.90;99.90
64939;DHT22;51453;47.738;7.420;2023-04-24T11:02:40;15.40;99.90
64939;DHT22;51453;47.738;7.420;2023-04-24T11:05:15;15.60;99.90
64939;DHT22;51453;47.738;7.420;2023-04-24T11:08:15;16.00;99.90
64939;DHT22;51453;47.738;7.420;2023-04-24T11:10:46;16.30;99.90
64939;DHT22;51453;47.738;7.420;2023-04-24T11:13:16;16.90;99.90
64939;DHT22;51453;47.738;7.420;2023-04-24T11:15:42;17.10;99.90
64939;DHT22;51453;47.738;7.420;2023-04-24T11:18:15;17.50;99.90
64939;DHT22;51453;47.738;7.420;2023-04-24T11:20:44;17.40;99.90
64939;DHT22;51453;47.738;7.420;2023-04-24T11:23:12;17.20;99.90
64939;DHT22;51453;47.738;7.420;2023-04-24T11:25:38;17.10;99.90
64939;DHT22;51453;47.738;7.420;2023-04-24T11:28:05;17.10;99.90
64939;DHT22;51453;47.738;7.420;2023-04-24T11:30:32;17.20;99.90
64939;DHT22;51453;47.738;7.420;2023-04-24T11:33:03;16.90;99.90
64939;DHT22;51453;47.738;7.420;2023-04-24T11:35:29;16.60;99.90
64939;DHT22;51453;47.738;7.420;2023-04-24T11:37:56;16.20;99.90
64939;DHT22;51453;47.738;7.420;2023-04-24T11:40:22;16.30;99.90
64939;DHT22;51453;47.738;7.420;2023-04-24T11:42:50;16.50;99.90
64939;DHT22;51453;47.738;7.420;2023-04-24T11:45:23;16.60;99.90
64939;DHT22;51453;47.738;7.420;2023-04-24T11:47:49;16.60;99.90
64939;DHT22;51453;47.738;7.420;2023-04-24T11:50:17;16.70;99.90
64939;DHT22;51453;47.738;7.420;2023-04-24T11:52:45;16.60;99.90
64939;DHT22;51453;47.738;7.420;2023-04-24T11:57:42;16.40;99.90
64939;DHT22;51453;47.738;7.420;2023-04-24T12:00:53;16.50;99.90
64939;DHT22;51453;47.738;7.420;2023-04-24T12:03:10;16.40;99.90
64939;DHT22;51453;47.738;7.420;2023-04-24T12:05:37;16.30;99.90
64939;DHT22;51453;47.738;7.420;2023-04-24T12:08:03;16.40;99.90
64939;DHT22;51453;47.738;7.420;2023-04-24T12:10:32;16.40;99.90
64939;DHT22;51453;47.738;7.420;2023-04-24T12:12:58;16.70;99.90
64939;DHT22;51453;47.738;7.420;2023-04-24T12:15:24;16.70;99.90
64939;DHT22;51453;47.738;7.420;2023-04-24T12:17:52;16.70;99.90
64939;DHT22;51453;47.738;7.420;2023-04-24T12:20:24;16.60;99.90
64939;DHT22;51453;47.738;7.420;2023-04-24T12:22:52;16.70;99.90
64939;DHT22;51453;47.738;7.420;2023-04-24T12:25:20;17.00;99.90
64939;DHT22;51453;47.738;7.420;2023-04-24T12:27:52;16.90;99.90
64939;DHT22;51453;47.738;7.420;2023-04-24T12:30:18;16.90;99.90
64939;DHT22;51453;47.738;7.420;2023-04-24T12:32:46;17.00;99.90
64939;DHT22;51453;47.738;7.420;2023-04-24T12:35:12;17.20;99.90
64939;DHT22;51453;47.738;7.420;2023-04-24T12:37:38;17.10;99.90
64939;DHT22;51453;47.738;7.420;2023-04-24T12:40:09;17.40;99.90
64939;DHT22;51453;47.738;7.420;2023-04-24T12:42:41;17.30;99.90
64939;DHT22;51453;47.738;7.420;2023-04-24T12:45:07;17.10;99.90
64939;DHT22;51453;47.738;7.420;2023-04-24T12:47:34;16.60;99.90
64939;DHT22;51453;47.738;7.420;2023-04-24T12:50:00;16.20;99.90
64939;DHT22;51453;47.738;7.420;2023-04-24T12:52:27;15.90;99.90
64939;DHT22;51453;47.738;7.420;2023-04-24T12:54:55;15.90;99.90
64939;DHT22;51453;47.738;7.420;2023-04-24T12:57:22;16.40;99.90
64939;DHT22;51453;47.738;7.420;2023-04-24T12:59:48;17.20;99.90
64939;DHT22;51453;47.738;7.420;2023-04-24T13:02:13;17.20;99.90
64939;DHT22;51453;47.738;7.420;2023-04-24T13:04:48;17.00;99.90
64939;DHT22;51453;47.738;7.420;2023-04-24T13:07:14;17.00;99.90
64939;DHT22;51453;47.738;7.420;2023-04-24T13:09:41;17.20;99.90
64939;DHT22;51453;47.738;7.420;2023-04-24T13:12:08;17.20;99.90
64939;DHT22;51453;47.738;7.420;2023-04-24T13:14:35;17.40;99.90
64939;DHT22;51453;47.738;7.420;2023-04-24T13:17:00;17.50;99.90
64939;DHT22;51453;47.738;7.420;2023-04-24T13:19:27;17.50;99.90
64939;DHT22;51453;47.738;7.420;2023-04-24T13:21:54;17.30;99.90
64939;DHT22;51453;47.738;7.420;2023-04-24T13:24:21;17.00;99.90
64939;DHT22;51453;47.738;7.420;2023-04-24T13:26:50;16.80;99.90
64939;DHT22;51453;47.738;7.420;2023-04-24T13:29:16;16.50;99.90
64939;DHT22;51453;47.738;7.420;2023-04-24T13:31:42;16.50;99.90
64939;DHT22;51453;47.738;7.420;2023-04-24T13:34:08;16.40;99.90
64939;DHT22;51453;47.738;7.420;2023-04-24T13:36:33;16.60;99.90
64939;DHT22;51453;47.738;7.420;2023-04-24T13:38:59;16.50;99.90
64939;DHT22;51453;47.738;7.420;2023-04-24T13:41:25;16.10;99.90
64939;DHT22;51453;47.738;7.420;2023-04-24T13:43:50;15.60;99.90
64939;DHT22;51453;47.738;7.420;2023-04-24T13:46:16;15.10;99.90
64939;DHT22;51453;47.738;7.420;2023-04-24T13:48:42;14.60;99.90
64939;DHT22;51453;47.738;7.420;2023-04-24T13:51:08;14.40;99.90
64939;DHT22;51453;47.738;7.420;2023-04-24T13:53:33;14.20;99.90
64939;DHT22;51453;47.738;7.420;2023-04-24T13:56:03;14.30;99.90
64939;DHT22;51453;47.738;7.420;2023-04-24T13:58:29;14.30;99.90
64939;DHT22;51453;47.738;7.420;2023-04-24T14:00:55;14.50;99.90
64939;DHT22;51453;47.738;7.420;2023-04-24T14:03:20;14.80;99.90
64939;DHT22;51453;47.738;7.420;2023-04-24T14:05:46;15.10;99.90
64939;DHT22;51453;47.738;7.420;2023-04-24T14:08:12;15.50;99.90
64939;DHT22;51453;47.738;7.420;2023-04-24T14:10:37;15.90;99.90
64939;DHT22;51453;47.738;7.420;2023-04-24T14:13:03;16.40;99.90
64939;DHT22;51453;47.738;7.420;2023-04-24T14:15:29;16.80;99.90
64939;DHT22;51453;47.738;7.420;2023-04-24T14:17:55;16.90;99.90
64939;DHT22;51453;47.738;7.420;2023-04-24T14:20:20;17.30;99.90
64939;DHT22;51453;47.738;7.420;2023-04-24T14:22:46;17.70;99.90
64939;DHT22;51453;47.738;7.420;2023-04-24T14:25:12;17.70;99.90
64939;DHT22;51453;47.738;7.420;2023-04-24T14:27:37;17.30;99.90
64939;DHT22;51453;47.738;7.420;2023-04-24T14:30:04;16.60;99.90
64939;DHT22;51453;47.738;7.420;2023-04-24T14:32:29;16.10;99.90
64939;DHT22;51453;47.738;7.420;2023-04-24T14:34:55;16.00;99.90
64939;DHT22;51453;47.738;7.420;2023-04-24T14:37:21;15.90;99.90
64939;DHT22;51453;47.738;7.420;2023-04-24T14:39:46;16.00;99.90
64939;DHT22;51453;47.738;7.420;2023-04-24T14:42:12;16.30;99.90
64939;DHT22;51453;47.738;7.420;2023-04-24T14:44:37;16.30;99.90
64939;DHT22;51453;47.738;7.420;2023-04-24T14:47:03;16.40;99.90
64939;DHT22;51453;47.738;7.420;2023-04-24T14:49:29;16.60;99.90
64939;DHT22;51453;47.738;7.420;2023-04-24T14:51:55;17.10;99.90
64939;DHT22;51453;47.738;7.420;2023-04-24T14:54:21;17.50;99.90
64939;DHT22;51453;47.738;7.420;2023-04-24T14:56:49;17.30;99.90
64939;DHT22;51453;47.738;7.420;2023-04-24T14:59:15;17.10;99.90
64939;DHT22;51453;47.738;7.420;2023-04-24T15:01:40;16.70;99.90
64939;DHT22;51453;47.738;7.420;2023-04-24T15:04:06;16.50;99.90
64939;DHT22;51453;47.738;7.420;2023-04-24T15:06:32;16.30;99.90
64939;DHT22;51453;47.738;7.420;2023-04-24T15:08:58;16.20;99.90
64939;DHT22;51453;47.738;7.420;2023-04-24T15:11:23;16.10;99.90
64939;DHT22;51453;47.738;7.420;2023-04-24T15:13:49;16.30;99.90
64939;DHT22;51453;47.738;7.420;2023-04-24T15:16:15;16.30;99.90
64939;DHT22;51453;47.738;7.420;2023-04-24T15:18:41;16.20;99.90
64939;DHT22;51453;47.738;7.420;2023-04-24T15:21:07;16.10;99.90
64939;DHT22;51453;47.738;7.420;2023-04-24T15:23:33;16.00;99.90
64939;DHT22;51453;47.738;7.420;2023-04-24T15:25:58;15.70;99.90
64939;DHT22;51453;47.738;7.420;2023-04-24T15:28:24;15.70;99.90
64939;DHT22;51453;47.738;7.420;2023-04-24T15:30:50;15.60;99.90
64939;DHT22;51453;47.738;7.420;2023-04-24T15:33:16;15.30;99.90
64939;DHT22;51453;47.738;7.420;2023-04-24T15:35:41;15.10;99.90